sensor_id;sensor_type;location;lat;lon;timestamp;P1;durP1;ratioP1;P2;durP2;ratioP2
79624;SDS011;69101;45.534;10.218;2023-07-13T00:02:18;8.00;;;1.85;;
79624;SDS011;69101;45.534;10.218;2023-07-13T00:04:43;8.00;;;1.75;;
79624;SDS011;69101;45.534;10.218;2023-07-13T00:07:09;8.20;;;1.83;;
79624;SDS011;69101;45.534;10.218;2023-07-13T00:09:34;8.35;;;1.70;;
79624;SDS011;69101;45.534;10.218;2023-07-13T00:12:00;6.28;;;1.38;;
79624;SDS011;69101;45.534;10.218;2023-07-13T00:14:27;7.90;;;1.75;;
79624;SDS011;69101;45.534;10.218;2023-07-13T00:16:54;8.63;;;1.85;;
79624;SDS011;69101;45.534;10.218;2023-07-13T00:19:20;8.70;;;1.80;;
79624;SDS011;69101;45.534;10.218;2023-07-13T00:21:46;8.35;;;1.90;;
79624;SDS011;69101;45.534;10.218;2023-07-13T00:24:12;7.90;;;1.70;;
79624;SDS011;69101;45.534;10.218;2023-07-13T00:26:40;8.35;;;1.67;;
79624;SDS011;69101;45.534;10.218;2023-07-13T00:29:10;8.30;;;1.90;;
79624;SDS011;69101;45.534;10.218;2023-07-13T00:31:36;8.13;;;1.85;;
79624;SDS011;69101;45.534;10.218;2023-07-13T00:34:02;7.25;;;1.75;;
79624;SDS011;69101;45.534;10.218;2023-07-13T00:36:29;7.95;;;1.90;;
79624;SDS011;69101;45.534;10.218;2023-07-13T00:38:55;8.93;;;2.00;;
79624;SDS011;69101;45.534;10.218;2023-07-13T00:41:20;6.65;;;1.60;;
79624;SDS011;69101;45.534;10.218;2023-07-13T00:43:46;8.95;;;1.88;;
79624;SDS011;69101;45.534;10.218;2023-07-13T00:48:48;10.93;;;2.15;;
79624;SDS011;69101;45.534;10.218;2023-07-13T00:51:16;7.85;;;1.90;;
79624;SDS011;69101;45.534;10.218;2023-07-13T00:53:46;8.75;;;2.03;;
79624;SDS011;69101;45.534;10.218;2023-07-13T00:56:12;8.48;;;1.95;;
79624;SDS011;69101;45.534;10.218;2023-07-13T00:58:38;8.55;;;2.03;;
79624;SDS011;69101;45.534;10.218;2023-07-13T01:01:04;9.05;;;2.30;;
79624;SDS011;69101;45.534;10.218;2023-07-13T01:03:29;8.48;;;2.00;;
79624;SDS011;69101;45.534;10.218;2023-07-13T01:05:54;8.40;;;2.00;;
79624;SDS011;69101;45.534;10.218;2023-07-13T01:08:21;7.97;;;2.10;;
79624;SDS011;69101;45.534;10.218;2023-07-13T01:10:50;9.52;;;2.33;;
79624;SDS011;69101;45.534;10.218;2023-07-13T01:13:19;8.70;;;2.17;;
79624;SDS011;69101;45.534;10.218;2023-07-13T01:15:47;9.38;;;2.33;;
79624;SDS011;69101;45.534;10.218;2023-07-13T01:18:21;9.88;;;2.88;;
79624;SDS011;69101;45.534;10.218;2023-07-13T01:20:59;9.30;;;2.58;;
79624;SDS011;69101;45.534;10.218;2023-07-13T01:23:27;8.77;;;2.30;;
79624;SDS011;69101;45.534;10.218;2023-07-13T01:25:54;9.50;;;2.30;;
79624;SDS011;69101;45.534;10.218;2023-07-13T01:28:20;10.05;;;2.50;;
79624;SDS011;69101;45.534;10.218;2023-07-13T01:30:46;8.38;;;2.17;;
79624;SDS011;69101;45.534;10.218;2023-07-13T01:33:13;8.98;;;2.30;;
79624;SDS011;69101;45.534;10.218;2023-07-13T01:35:43;8.57;;;2.22;;
79624;SDS011;69101;45.534;10.218;2023-07-13T01:38:13;9.90;;;2.40;;
79624;SDS011;69101;45.534;10.218;2023-07-13T01:40:40;9.40;;;2.42;;
79624;SDS011;69101;45.534;10.218;2023-07-13T01:43:05;9.00;;;2.20;;
79624;SDS011;69101;45.534;10.218;2023-07-13T01:45:31;9.43;;;2.38;;
79624;SDS011;69101;45.534;10.218;2023-07-13T01:47:57;8.55;;;2.28;;
79624;SDS011;69101;45.534;10.218;2023-07-13T01:50:23;9.98;;;2.42;;
79624;SDS011;69101;45.534;10.218;2023-07-13T01:52:49;8.52;;;2.28;;
79624;SDS011;69101;45.534;10.218;2023-07-13T01:55:14;9.25;;;2.40;;
79624;SDS011;69101;45.534;10.218;2023-07-13T01:57:40;9.75;;;2.10;;
79624;SDS011;69101;45.534;10.218;2023-07-13T02:00:06;10.57;;;2.50;;
79624;SDS011;69101;45.534;10.218;2023-07-13T02:02:34;9.55;;;2.33;;
79624;SDS011;69101;45.534;10.218;2023-07-13T02:04:59;11.05;;;2.40;;
79624;SDS011;69101;45.534;10.218;2023-07-13T02:07:24;10.10;;;2.55;;
79624;SDS011;69101;45.534;10.218;2023-07-13T02:09:50;10.13;;;2.28;;
79624;SDS011;69101;45.534;10.218;2023-07-13T02:12:15;10.25;;;2.40;;
79624;SDS011;69101;45.534;10.218;2023-07-13T02:14:40;8.60;;;2.35;;
79624;SDS011;69101;45.534;10.218;2023-07-13T02:17:06;9.98;;;2.60;;
79624;SDS011;69101;45.534;10.218;2023-07-13T02:19:31;10.20;;;2.60;;
79624;SDS011;69101;45.534;10.218;2023-07-13T02:21:57;7.95;;;2.40;;
79624;SDS011;69101;45.534;10.218;2023-07-13T02:24:22;9.65;;;2.60;;
79624;SDS011;69101;45.534;10.218;2023-07-13T02:26:48;10.07;;;2.40;;
79624;SDS011;69101;45.534;10.218;2023-07-13T02:29:13;9.43;;;2.47;;
79624;SDS011;69101;45.534;10.218;2023-07-13T02:31:39;9.35;;;2.45;;
79624;SDS011;69101;45.534;10.218;2023-07-13T02:34:04;9.52;;;2.50;;
79624;SDS011;69101;45.534;10.218;2023-07-13T02:36:30;9.35;;;2.35;;
79624;SDS011;69101;45.534;10.218;2023-07-13T02:38:56;9.02;;;2.20;;
79624;SDS011;69101;45.534;10.218;2023-07-13T02:41:21;9.85;;;2.42;;
79624;SDS011;69101;45.534;10.218;2023-07-13T02:43:48;8.70;;;2.30;;
79624;SDS011;69101;45.534;10.218;2023-07-13T02:46:13;10.93;;;2.22;;
79624;SDS011;69101;45.534;10.218;2023-07-13T02:48:39;10.18;;;2.35;;
79624;SDS011;69101;45.534;10.218;2023-07-13T02:51:05;8.43;;;2.35;;
79624;SDS011;69101;45.534;10.218;2023-07-13T02:53:31;8.98;;;2.30;;
79624;SDS011;69101;45.534;10.218;2023-07-13T02:55:57;8.73;;;2.20;;
79624;SDS011;69101;45.534;10.218;2023-07-13T02:58:22;11.93;;;2.55;;
79624;SDS011;69101;45.534;10.218;2023-07-13T03:00:48;9.63;;;2.30;;
79624;SDS011;69101;45.534;10.218;2023-07-13T03:03:15;8.95;;;2.28;;
79624;SDS011;69101;45.534;10.218;2023-07-13T03:05:41;9.00;;;2.40;;
79624;SDS011;69101;45.534;10.218;2023-07-13T03:08:09;9.23;;;2.42;;
79624;SDS011;69101;45.534;10.218;2023-07-13T03:10:35;9.23;;;2.35;;
79624;SDS011;69101;45.534;10.218;2023-07-13T03:13:00;9.07;;;2.38;;
79624;SDS011;69101;45.534;10.218;2023-07-13T03:15:26;11.35;;;2.47;;
79624;SDS011;69101;45.534;10.218;2023-07-13T03:17:51;10.40;;;2.92;;
79624;SDS011;69101;45.534;10.218;2023-07-13T03:20:17;10.60;;;2.65;;
79624;SDS011;69101;45.534;10.218;2023-07-13T03:22:43;9.02;;;2.67;;
79624;SDS011;69101;45.534;10.218;2023-07-13T03:25:08;10.13;;;2.38;;
79624;SDS011;69101;45.534;10.218;2023-07-13T03:27:34;9.30;;;2.55;;
79624;SDS011;69101;45.534;10.218;2023-07-13T03:29:59;9.73;;;2.25;;
79624;SDS011;69101;45.534;10.218;2023-07-13T03:32:25;9.70;;;2.40;;
79624;SDS011;69101;45.534;10.218;2023-07-13T03:34:50;9.65;;;2.33;;
79624;SDS011;69101;45.534;10.218;2023-07-13T03:37:15;9.77;;;2.50;;
79624;SDS011;69101;45.534;10.218;2023-07-13T03:39:41;9.35;;;2.28;;
79624;SDS011;69101;45.534;10.218;2023-07-13T03:42:07;9.32;;;2.60;;
79624;SDS011;69101;45.534;10.218;2023-07-13T03:44:32;10.15;;;2.22;;
79624;SDS011;69101;45.534;10.218;2023-07-13T03:46:58;8.52;;;2.35;;
79624;SDS011;69101;45.534;10.218;2023-07-13T03:49:23;8.82;;;2.40;;
79624;SDS011;69101;45.534;10.218;2023-07-13T03:51:48;9.40;;;2.67;;
79624;SDS011;69101;45.534;10.218;2023-07-13T03:54:14;9.88;;;2.40;;
79624;SDS011;69101;45.534;10.218;2023-07-13T03:56:39;9.60;;;2.33;;
79624;SDS011;69101;45.534;10.218;2023-07-13T03:59:04;7.97;;;2.15;;
79624;SDS011;69101;45.534;10.218;2023-07-13T04:01:30;10.30;;;2.40;;
79624;SDS011;69101;45.534;10.218;2023-07-13T04:03:56;8.88;;;2.30;;
79624;SDS011;69101;45.534;10.218;2023-07-13T04:06:22;8.80;;;2.20;;
79624;SDS011;69101;45.534;10.218;2023-07-13T04:08:51;8.98;;;2.30;;
79624;SDS011;69101;45.534;10.218;2023-07-13T04:11:24;8.73;;;2.42;;
79624;SDS011;69101;45.534;10.218;2023-07-13T04:13:51;9.35;;;2.50;;
79624;SDS011;69101;45.534;10.218;2023-07-13T04:16:17;7.93;;;2.35;;
79624;SDS011;69101;45.534;10.218;2023-07-13T04:18:43;7.85;;;2.20;;
79624;SDS011;69101;45.534;10.218;2023-07-13T04:21:09;7.88;;;2.20;;
79624;SDS011;69101;45.534;10.218;2023-07-13T04:23:35;9.15;;;2.20;;
79624;SDS011;69101;45.534;10.218;2023-07-13T04:26:01;10.68;;;2.50;;
79624;SDS011;69101;45.534;10.218;2023-07-13T04:28:27;9.45;;;2.15;;
79624;SDS011;69101;45.534;10.218;2023-07-13T04:30:52;9.07;;;2.28;;
79624;SDS011;69101;45.534;10.218;2023-07-13T04:33:18;9.40;;;2.28;;
79624;SDS011;69101;45.534;10.218;2023-07-13T04:35:47;10.13;;;2.42;;
79624;SDS011;69101;45.534;10.218;2023-07-13T04:38:14;9.63;;;2.50;;
79624;SDS011;69101;45.534;10.218;2023-07-13T04:40:42;8.73;;;2.25;;
79624;SDS011;69101;45.534;10.218;2023-07-13T04:43:09;9.05;;;2.42;;
79624;SDS011;69101;45.534;10.218;2023-07-13T04:45:35;9.30;;;2.45;;
79624;SDS011;69101;45.534;10.218;2023-07-13T04:48:00;10.00;;;2.60;;
79624;SDS011;69101;45.534;10.218;2023-07-13T04:50:26;11.27;;;2.40;;
79624;SDS011;69101;45.534;10.218;2023-07-13T04:52:51;8.77;;;2.33;;
79624;SDS011;69101;45.534;10.218;2023-07-13T04:55:16;9.73;;;2.47;;
79624;SDS011;69101;45.534;10.218;2023-07-13T04:57:43;9.88;;;2.45;;
79624;SDS011;69101;45.534;10.218;2023-07-13T05:00:08;8.52;;;2.25;;
79624;SDS011;69101;45.534;10.218;2023-07-13T05:02:34;9.57;;;2.63;;
79624;SDS011;69101;45.534;10.218;2023-07-13T05:05:02;8.70;;;2.35;;
79624;SDS011;69101;45.534;10.218;2023-07-13T05:07:28;9.52;;;2.47;;
79624;SDS011;69101;45.534;10.218;2023-07-13T05:09:54;9.13;;;2.50;;
79624;SDS011;69101;45.534;10.218;2023-07-13T05:12:19;8.55;;;2.25;;
79624;SDS011;69101;45.534;10.218;2023-07-13T05:14:45;9.38;;;2.30;;
79624;SDS011;69101;45.534;10.218;2023-07-13T05:17:10;9.80;;;2.55;;
79624;SDS011;69101;45.534;10.218;2023-07-13T05:19:35;9.93;;;2.63;;
79624;SDS011;69101;45.534;10.218;2023-07-13T05:22:01;9.48;;;2.40;;
79624;SDS011;69101;45.534;10.218;2023-07-13T05:24:28;10.70;;;2.45;;
79624;SDS011;69101;45.534;10.218;2023-07-13T05:26:54;10.05;;;2.40;;
79624;SDS011;69101;45.534;10.218;2023-07-13T05:29:20;9.48;;;2.28;;
79624;SDS011;69101;45.534;10.218;2023-07-13T05:31:46;9.85;;;2.50;;
79624;SDS011;69101;45.534;10.218;2023-07-13T05:34:11;8.90;;;2.40;;
79624;SDS011;69101;45.534;10.218;2023-07-13T05:36:37;9.77;;;2.40;;
79624;SDS011;69101;45.534;10.218;2023-07-13T05:39:02;10.32;;;2.35;;
79624;SDS011;69101;45.534;10.218;2023-07-13T05:41:28;9.55;;;2.40;;
79624;SDS011;69101;45.534;10.218;2023-07-13T05:43:54;9.23;;;2.47;;
79624;SDS011;69101;45.534;10.218;2023-07-13T05:46:19;9.95;;;2.40;;
79624;SDS011;69101;45.534;10.218;2023-07-13T05:48:44;11.45;;;2.17;;
79624;SDS011;69101;45.534;10.218;2023-07-13T05:51:10;9.55;;;2.58;;
79624;SDS011;69101;45.534;10.218;2023-07-13T05:53:35;10.85;;;2.65;;
79624;SDS011;69101;45.534;10.218;2023-07-13T05:56:01;11.38;;;2.78;;
79624;SDS011;69101;45.534;10.218;2023-07-13T05:58:26;11.00;;;2.58;;
79624;SDS011;69101;45.534;10.218;2023-07-13T06:00:58;12.27;;;3.30;;
79624;SDS011;69101;45.534;10.218;2023-07-13T06:03:45;12.45;;;3.50;;
79624;SDS011;69101;45.534;10.218;2023-07-13T06:06:11;11.70;;;3.00;;
79624;SDS011;69101;45.534;10.218;2023-07-13T06:08:37;11.60;;;3.55;;
79624;SDS011;69101;45.534;10.218;2023-07-13T06:11:04;15.38;;;4.13;;
79624;SDS011;69101;45.534;10.218;2023-07-13T06:13:31;14.30;;;4.03;;
79624;SDS011;69101;45.534;10.218;2023-07-13T06:15:57;14.65;;;3.25;;
79624;SDS011;69101;45.534;10.218;2023-07-13T06:18:22;12.88;;;3.45;;
79624;SDS011;69101;45.534;10.218;2023-07-13T06:20:47;12.98;;;3.45;;
79624;SDS011;69101;45.534;10.218;2023-07-13T06:23:13;11.30;;;4.00;;
79624;SDS011;69101;45.534;10.218;2023-07-13T06:25:38;12.38;;;3.38;;
79624;SDS011;69101;45.534;10.218;2023-07-13T06:28:05;12.07;;;2.80;;
79624;SDS011;69101;45.534;10.218;2023-07-13T06:30:30;12.52;;;2.90;;
79624;SDS011;69101;45.534;10.218;2023-07-13T06:32:56;11.18;;;2.75;;
79624;SDS011;69101;45.534;10.218;2023-07-13T06:35:22;10.07;;;2.70;;
79624;SDS011;69101;45.534;10.218;2023-07-13T06:37:47;10.35;;;2.88;;
79624;SDS011;69101;45.534;10.218;2023-07-13T06:40:13;14.85;;;3.42;;
79624;SDS011;69101;45.534;10.218;2023-07-13T06:42:38;12.30;;;2.83;;
79624;SDS011;69101;45.534;10.218;2023-07-13T06:45:03;11.40;;;3.60;;
79624;SDS011;69101;45.534;10.218;2023-07-13T06:47:29;12.23;;;3.30;;
79624;SDS011;69101;45.534;10.218;2023-07-13T06:49:55;11.93;;;3.40;;
79624;SDS011;69101;45.534;10.218;2023-07-13T06:52:20;18.17;;;4.10;;
79624;SDS011;69101;45.534;10.218;2023-07-13T06:54:46;12.95;;;3.70;;
79624;SDS011;69101;45.534;10.218;2023-07-13T06:57:11;18.50;;;3.80;;
79624;SDS011;69101;45.534;10.218;2023-07-13T06:59:36;13.27;;;3.50;;
79624;SDS011;69101;45.534;10.218;2023-07-13T07:02:02;12.80;;;3.30;;
79624;SDS011;69101;45.534;10.218;2023-07-13T07:04:27;13.77;;;2.92;;
79624;SDS011;69101;45.534;10.218;2023-07-13T07:06:54;13.73;;;2.75;;
79624;SDS011;69101;45.534;10.218;2023-07-13T07:09:19;11.52;;;2.50;;
79624;SDS011;69101;45.534;10.218;2023-07-13T07:11:45;10.27;;;2.45;;
79624;SDS011;69101;45.534;10.218;2023-07-13T07:14:10;11.73;;;2.55;;
79624;SDS011;69101;45.534;10.218;2023-07-13T07:16:35;11.27;;;2.65;;
79624;SDS011;69101;45.534;10.218;2023-07-13T07:19:01;10.55;;;2.75;;
79624;SDS011;69101;45.534;10.218;2023-07-13T07:21:26;10.20;;;3.05;;
79624;SDS011;69101;45.534;10.218;2023-07-13T07:23:52;12.60;;;3.10;;
79624;SDS011;69101;45.534;10.218;2023-07-13T07:26:17;12.48;;;3.08;;
79624;SDS011;69101;45.534;10.218;2023-07-13T07:28:43;10.98;;;2.90;;
79624;SDS011;69101;45.534;10.218;2023-07-13T07:31:08;9.85;;;2.40;;
79624;SDS011;69101;45.534;10.218;2023-07-13T07:33:34;11.57;;;2.80;;
79624;SDS011;69101;45.534;10.218;2023-07-13T07:36:00;10.23;;;2.67;;
79624;SDS011;69101;45.534;10.218;2023-07-13T07:38:26;12.90;;;2.67;;
79624;SDS011;69101;45.534;10.218;2023-07-13T07:40:52;11.32;;;2.67;;
79624;SDS011;69101;45.534;10.218;2023-07-13T07:43:17;11.75;;;2.28;;
79624;SDS011;69101;45.534;10.218;2023-07-13T07:45:43;9.40;;;2.40;;
79624;SDS011;69101;45.534;10.218;2023-07-13T07:48:10;9.15;;;2.05;;
79624;SDS011;69101;45.534;10.218;2023-07-13T07:50:35;12.52;;;3.20;;
79624;SDS011;69101;45.534;10.218;2023-07-13T07:53:02;11.75;;;2.70;;
79624;SDS011;69101;45.534;10.218;2023-07-13T07:55:28;12.88;;;2.42;;
79624;SDS011;69101;45.534;10.218;2023-07-13T07:57:54;10.98;;;2.50;;
79624;SDS011;69101;45.534;10.218;2023-07-13T08:00:19;10.30;;;2.28;;
79624;SDS011;69101;45.534;10.218;2023-07-13T08:02:45;13.23;;;2.40;;
79624;SDS011;69101;45.534;10.218;2023-07-13T08:05:11;11.52;;;2.55;;
79624;SDS011;69101;45.534;10.218;2023-07-13T08:07:37;12.88;;;2.30;;
79624;SDS011;69101;45.534;10.218;2023-07-13T08:10:04;11.07;;;2.70;;
79624;SDS011;69101;45.534;10.218;2023-07-13T08:12:33;12.57;;;2.40;;
79624;SDS011;69101;45.534;10.218;2023-07-13T08:15:03;10.50;;;2.70;;
79624;SDS011;69101;45.534;10.218;2023-07-13T08:17:29;10.90;;;2.67;;
79624;SDS011;69101;45.534;10.218;2023-07-13T08:19:54;11.23;;;2.50;;
79624;SDS011;69101;45.534;10.218;2023-07-13T08:22:20;15.15;;;2.70;;
79624;SDS011;69101;45.534;10.218;2023-07-13T08:24:45;12.70;;;3.28;;
79624;SDS011;69101;45.534;10.218;2023-07-13T08:27:12;11.45;;;2.75;;
79624;SDS011;69101;45.534;10.218;2023-07-13T08:29:38;12.10;;;2.63;;
79624;SDS011;69101;45.534;10.218;2023-07-13T08:32:04;9.27;;;2.70;;
79624;SDS011;69101;45.534;10.218;2023-07-13T08:34:34;10.45;;;2.60;;
79624;SDS011;69101;45.534;10.218;2023-07-13T08:37:00;11.18;;;2.90;;
79624;SDS011;69101;45.534;10.218;2023-07-13T08:39:25;12.82;;;3.47;;
79624;SDS011;69101;45.534;10.218;2023-07-13T08:41:53;12.68;;;3.63;;
79624;SDS011;69101;45.534;10.218;2023-07-13T08:44:44;11.13;;;2.47;;
79624;SDS011;69101;45.534;10.218;2023-07-13T08:47:16;11.38;;;2.63;;
79624;SDS011;69101;45.534;10.218;2023-07-13T08:49:46;11.35;;;3.15;;
79624;SDS011;69101;45.534;10.218;2023-07-13T08:54:58;10.40;;;2.35;;
79624;SDS011;69101;45.534;10.218;2023-07-13T08:57:34;9.55;;;2.67;;
79624;SDS011;69101;45.534;10.218;2023-07-13T09:00:01;11.38;;;3.08;;
79624;SDS011;69101;45.534;10.218;2023-07-13T09:02:27;12.27;;;2.90;;
79624;SDS011;69101;45.534;10.218;2023-07-13T09:05:18;13.85;;;2.88;;
79624;SDS011;69101;45.534;10.218;2023-07-13T09:10:52;10.00;;;2.90;;
79624;SDS011;69101;45.534;10.218;2023-07-13T09:15:59;11.93;;;2.72;;
79624;SDS011;69101;45.534;10.218;2023-07-13T09:21:07;10.48;;;2.85;;
79624;SDS011;69101;45.534;10.218;2023-07-13T09:23:37;11.95;;;3.03;;
79624;SDS011;69101;45.534;10.218;2023-07-13T09:26:06;13.43;;;3.42;;
79624;SDS011;69101;45.534;10.218;2023-07-13T09:28:38;12.40;;;3.40;;
79624;SDS011;69101;45.534;10.218;2023-07-13T09:33:32;12.35;;;3.22;;
79624;SDS011;69101;45.534;10.218;2023-07-13T09:36:00;12.02;;;3.60;;
79624;SDS011;69101;45.534;10.218;2023-07-13T09:38:27;15.48;;;3.15;;
79624;SDS011;69101;45.534;10.218;2023-07-13T09:47:16;14.98;;;4.80;;
79624;SDS011;69101;45.534;10.218;2023-07-13T09:49:56;11.20;;;3.20;;
79624;SDS011;69101;45.534;10.218;2023-07-13T09:52:23;12.95;;;3.80;;
79624;SDS011;69101;45.534;10.218;2023-07-13T09:54:50;12.88;;;3.85;;
79624;SDS011;69101;45.534;10.218;2023-07-13T09:57:19;16.25;;;4.90;;
79624;SDS011;69101;45.534;10.218;2023-07-13T10:02:36;13.40;;;4.00;;
79624;SDS011;69101;45.534;10.218;2023-07-13T10:05:02;13.52;;;3.60;;
79624;SDS011;69101;45.534;10.218;2023-07-13T10:07:38;14.63;;;4.10;;
79624;SDS011;69101;45.534;10.218;2023-07-13T10:10:12;13.80;;;3.58;;
79624;SDS011;69101;45.534;10.218;2023-07-13T10:12:47;13.43;;;4.00;;
79624;SDS011;69101;45.534;10.218;2023-07-13T10:15:15;13.90;;;3.85;;
79624;SDS011;69101;45.534;10.218;2023-07-13T10:17:43;13.80;;;3.55;;
79624;SDS011;69101;45.534;10.218;2023-07-13T10:20:10;13.98;;;3.40;;
79624;SDS011;69101;45.534;10.218;2023-07-13T10:25:22;11.45;;;3.30;;
79624;SDS011;69101;45.534;10.218;2023-07-13T10:27:50;12.98;;;3.15;;
79624;SDS011;69101;45.534;10.218;2023-07-13T10:30:20;12.27;;;3.63;;
79624;SDS011;69101;45.534;10.218;2023-07-13T10:32:50;12.73;;;4.07;;
79624;SDS011;69101;45.534;10.218;2023-07-13T10:35:21;13.25;;;3.33;;
79624;SDS011;69101;45.534;10.218;2023-07-13T10:37:55;12.15;;;4.45;;
79624;SDS011;69101;45.534;10.218;2023-07-13T10:40:27;13.77;;;3.75;;
79624;SDS011;69101;45.534;10.218;2023-07-13T10:42:58;12.73;;;3.67;;
79624;SDS011;69101;45.534;10.218;2023-07-13T10:45:28;12.75;;;4.30;;
79624;SDS011;69101;45.534;10.218;2023-07-13T10:47:56;13.10;;;3.92;;
79624;SDS011;69101;45.534;10.218;2023-07-13T10:50:23;14.85;;;4.55;;
79624;SDS011;69101;45.534;10.218;2023-07-13T10:52:56;15.13;;;4.68;;
79624;SDS011;69101;45.534;10.218;2023-07-13T10:57:59;13.77;;;4.10;;
79624;SDS011;69101;45.534;10.218;2023-07-13T11:00:26;14.80;;;4.72;;
79624;SDS011;69101;45.534;10.218;2023-07-13T11:02:58;13.40;;;4.15;;
79624;SDS011;69101;45.534;10.218;2023-07-13T11:05:27;14.38;;;5.13;;
79624;SDS011;69101;45.534;10.218;2023-07-13T11:07:56;14.73;;;4.38;;
79624;SDS011;69101;45.534;10.218;2023-07-13T11:10:48;14.13;;;4.30;;
79624;SDS011;69101;45.534;10.218;2023-07-13T11:13:55;11.43;;;3.90;;
79624;SDS011;69101;45.534;10.218;2023-07-13T11:18:50;16.35;;;4.53;;
79624;SDS011;69101;45.534;10.218;2023-07-13T11:21:18;12.85;;;3.97;;
79624;SDS011;69101;45.534;10.218;2023-07-13T11:24:47;14.93;;;4.47;;
79624;SDS011;69101;45.534;10.218;2023-07-13T11:31:42;12.60;;;3.65;;
79624;SDS011;69101;45.534;10.218;2023-07-13T11:34:15;11.52;;;4.00;;
79624;SDS011;69101;45.534;10.218;2023-07-13T11:36:46;13.30;;;3.90;;
79624;SDS011;69101;45.534;10.218;2023-07-13T11:41:58;14.65;;;4.15;;
79624;SDS011;69101;45.534;10.218;2023-07-13T11:44:26;13.30;;;4.40;;
79624;SDS011;69101;45.534;10.218;2023-07-13T11:46:54;12.30;;;3.63;;
79624;SDS011;69101;45.534;10.218;2023-07-13T11:49:22;13.77;;;4.03;;
79624;SDS011;69101;45.534;10.218;2023-07-13T11:51:49;12.80;;;3.85;;
79624;SDS011;69101;45.534;10.218;2023-07-13T11:54:23;12.45;;;4.20;;
79624;SDS011;69101;45.534;10.218;2023-07-13T11:57:37;13.30;;;4.15;;
79624;SDS011;69101;45.534;10.218;2023-07-13T11:59:43;13.25;;;3.72;;
79624;SDS011;69101;45.534;10.218;2023-07-13T12:02:13;12.30;;;3.30;;
79624;SDS011;69101;45.534;10.218;2023-07-13T12:04:50;11.95;;;3.90;;
79624;SDS011;69101;45.534;10.218;2023-07-13T12:07:17;11.05;;;3.35;;
79624;SDS011;69101;45.534;10.218;2023-07-13T12:09:44;10.57;;;3.60;;
79624;SDS011;69101;45.534;10.218;2023-07-13T12:12:10;9.52;;;3.22;;
79624;SDS011;69101;45.534;10.218;2023-07-13T12:14:37;12.93;;;4.00;;
79624;SDS011;69101;45.534;10.218;2023-07-13T12:17:04;14.63;;;4.25;;
79624;SDS011;69101;45.534;10.218;2023-07-13T12:19:36;12.85;;;3.95;;
79624;SDS011;69101;45.534;10.218;2023-07-13T12:22:01;13.73;;;3.88;;
79624;SDS011;69101;45.534;10.218;2023-07-13T12:24:27;13.35;;;3.70;;
79624;SDS011;69101;45.534;10.218;2023-07-13T12:27:00;12.25;;;4.25;;
79624;SDS011;69101;45.534;10.218;2023-07-13T12:29:27;13.00;;;3.67;;
79624;SDS011;69101;45.534;10.218;2023-07-13T12:31:53;12.80;;;3.90;;
79624;SDS011;69101;45.534;10.218;2023-07-13T12:34:21;11.35;;;3.33;;
79624;SDS011;69101;45.534;10.218;2023-07-13T12:40:12;12.60;;;3.30;;
79624;SDS011;69101;45.534;10.218;2023-07-13T12:42:27;10.38;;;3.22;;
79624;SDS011;69101;45.534;10.218;2023-07-13T12:47:27;14.25;;;3.53;;
79624;SDS011;69101;45.534;10.218;2023-07-13T12:49:54;12.00;;;3.40;;
79624;SDS011;69101;45.534;10.218;2023-07-13T12:52:33;11.98;;;3.40;;
79624;SDS011;69101;45.534;10.218;2023-07-13T12:55:04;10.65;;;2.97;;
79624;SDS011;69101;45.534;10.218;2023-07-13T12:57:39;10.73;;;3.60;;
79624;SDS011;69101;45.534;10.218;2023-07-13T13:00:13;13.05;;;3.90;;
79624;SDS011;69101;45.534;10.218;2023-07-13T13:02:44;10.85;;;3.20;;
79624;SDS011;69101;45.534;10.218;2023-07-13T13:05:12;12.48;;;3.13;;
79624;SDS011;69101;45.534;10.218;2023-07-13T13:07:39;12.70;;;3.80;;
79624;SDS011;69101;45.534;10.218;2023-07-13T13:10:10;11.73;;;3.80;;
79624;SDS011;69101;45.534;10.218;2023-07-13T13:12:36;13.00;;;3.53;;
79624;SDS011;69101;45.534;10.218;2023-07-13T13:15:02;12.18;;;3.60;;
79624;SDS011;69101;45.534;10.218;2023-07-13T13:17:28;12.77;;;4.20;;
79624;SDS011;69101;45.534;10.218;2023-07-13T13:19:55;11.35;;;3.60;;
79624;SDS011;69101;45.534;10.218;2023-07-13T13:22:22;11.73;;;3.13;;
79624;SDS011;69101;45.534;10.218;2023-07-13T13:24:47;12.43;;;3.78;;
79624;SDS011;69101;45.534;10.218;2023-07-13T13:27:22;11.60;;;3.35;;
79624;SDS011;69101;45.534;10.218;2023-07-13T13:29:49;11.75;;;3.47;;
79624;SDS011;69101;45.534;10.218;2023-07-13T13:32:19;12.30;;;3.97;;
79624;SDS011;69101;45.534;10.218;2023-07-13T13:34:44;15.50;;;3.95;;
79624;SDS011;69101;45.534;10.218;2023-07-13T13:37:22;12.35;;;3.65;;
79624;SDS011;69101;45.534;10.218;2023-07-13T13:39:50;11.75;;;3.80;;
79624;SDS011;69101;45.534;10.218;2023-07-13T13:42:17;12.77;;;3.97;;
79624;SDS011;69101;45.534;10.218;2023-07-13T13:44:42;15.05;;;4.13;;
79624;SDS011;69101;45.534;10.218;2023-07-13T13:47:17;12.95;;;4.10;;
79624;SDS011;69101;45.534;10.218;2023-07-13T13:49:59;11.52;;;3.78;;
79624;SDS011;69101;45.534;10.218;2023-07-13T13:52:25;14.98;;;4.10;;
79624;SDS011;69101;45.534;10.218;2023-07-13T13:54:51;11.95;;;3.88;;
79624;SDS011;69101;45.534;10.218;2023-07-13T13:57:21;12.75;;;4.38;;
79624;SDS011;69101;45.534;10.218;2023-07-13T13:59:52;14.68;;;4.13;;
79624;SDS011;69101;45.534;10.218;2023-07-13T14:02:22;16.17;;;5.05;;
79624;SDS011;69101;45.534;10.218;2023-07-13T14:04:57;13.38;;;4.40;;
79624;SDS011;69101;45.534;10.218;2023-07-13T14:07:24;16.42;;;5.05;;
79624;SDS011;69101;45.534;10.218;2023-07-13T14:09:52;16.15;;;5.38;;
79624;SDS011;69101;45.534;10.218;2023-07-13T14:12:22;14.75;;;5.53;;
79624;SDS011;69101;45.534;10.218;2023-07-13T14:14:49;15.45;;;6.57;;
79624;SDS011;69101;45.534;10.218;2023-07-13T14:17:22;14.88;;;5.85;;
79624;SDS011;69101;45.534;10.218;2023-07-13T14:19:50;16.98;;;5.65;;
79624;SDS011;69101;45.534;10.218;2023-07-13T14:22:19;16.50;;;5.68;;
79624;SDS011;69101;45.534;10.218;2023-07-13T14:24:45;14.57;;;4.82;;
79624;SDS011;69101;45.534;10.218;2023-07-13T14:27:11;13.10;;;4.72;;
79624;SDS011;69101;45.534;10.218;2023-07-13T14:29:37;17.05;;;5.35;;
79624;SDS011;69101;45.534;10.218;2023-07-13T14:32:03;16.20;;;4.57;;
79624;SDS011;69101;45.534;10.218;2023-07-13T14:34:30;14.70;;;4.50;;
79624;SDS011;69101;45.534;10.218;2023-07-13T14:36:55;13.13;;;4.75;;
79624;SDS011;69101;45.534;10.218;2023-07-13T14:39:22;13.95;;;4.72;;
79624;SDS011;69101;45.534;10.218;2023-07-13T14:41:52;14.77;;;5.28;;
79624;SDS011;69101;45.534;10.218;2023-07-13T14:44:24;16.08;;;5.03;;
79624;SDS011;69101;45.534;10.218;2023-07-13T14:46:53;17.02;;;4.90;;
79624;SDS011;69101;45.534;10.218;2023-07-13T14:49:30;14.50;;;4.40;;
79624;SDS011;69101;45.534;10.218;2023-07-13T14:52:00;13.85;;;4.45;;
79624;SDS011;69101;45.534;10.218;2023-07-13T14:54:29;12.52;;;4.40;;
79624;SDS011;69101;45.534;10.218;2023-07-13T14:56:54;19.08;;;4.85;;
79624;SDS011;69101;45.534;10.218;2023-07-13T14:59:20;14.88;;;4.80;;
79624;SDS011;69101;45.534;10.218;2023-07-13T15:01:45;15.80;;;4.75;;
79624;SDS011;69101;45.534;10.218;2023-07-13T15:04:13;14.95;;;4.53;;
79624;SDS011;69101;45.534;10.218;2023-07-13T15:06:58;14.68;;;4.47;;
79624;SDS011;69101;45.534;10.218;2023-07-13T15:09:27;15.65;;;4.80;;
79624;SDS011;69101;45.534;10.218;2023-07-13T15:11:56;12.85;;;4.70;;
79624;SDS011;69101;45.534;10.218;2023-07-13T15:14:22;15.95;;;4.78;;
79624;SDS011;69101;45.534;10.218;2023-07-13T15:16:50;17.15;;;5.70;;